Time;durP1;ratioP1;P1;durP2;ratioP2;P2;SDS_P1;SDS_P2;PMS_P1;PMS_P2;Temp;Humidity;BMP_temperature;BMP_pressure;BME280_temperature;BME280_humidity;BME280_pressure;Samples;Min_cycle;Max_cycle;Signal;HPM_P1;HPM_P2
2023/02/14 00:01:07;;;;;;;23.67;14.03;;;;;;;3.20;85.30;100928.13;5093324;28;43030;-81
2023/02/14 00:03:35;;;;;;;28.63;15.83;;;;;;;3.16;86.27;100926.38;5090519;28;42195;-81
2023/02/14 00:06:08;;;;;;;33.27;15.40;;;;;;;3.18;85.97;100934.22;5092549;28;39695;-81
2023/02/14 00:08:39;;;;;;;33.57;15.63;;;;;;;3.11;87.12;100927.22;5090670;28;41808;-82
2023/02/14 00:11:08;;;;;;;58.67;17.37;;;;;;;2.98;86.91;100910.63;5075362;28;43075;-80
2023/02/14 00:13:36;;;;;;;46.90;16.53;;;;;;;3.05;86.76;100915.00;5075454;28;43342;-81
2023/02/14 00:16:03;;;;;;;30.67;16.07;;;;;;;3.12;86.42;100924.59;5093451;28;39911;-81
2023/02/14 00:21:12;;;;;;;33.00;15.63;;;;;;;3.24;85.98;100924.63;5088384;28;43774;-81
2023/02/14 00:23:42;;;;;;;24.47;14.07;;;;;;;3.29;85.82;100929.88;5092341;28;41344;-81
2023/02/14 00:26:14;;;;;;;49.47;17.33;;;;;;;3.32;86.06;100922.00;5092779;28;39937;-81
2023/02/14 00:28:43;;;;;;;29.63;15.27;;;;;;;3.31;86.00;100925.50;5075319;28;40867;-80
2023/02/14 00:31:11;;;;;;;29.80;17.17;;;;;;;3.37;86.00;100924.63;5075083;28;41651;-81
2023/02/14 00:33:39;;;;;;;33.50;16.90;;;;;;;3.41;85.75;100928.97;5075228;28;41107;-81
2023/02/14 00:36:07;;;;;;;38.17;17.90;;;;;;;3.35;85.52;100915.88;5074694;28;39147;-81
2023/02/14 00:38:35;;;;;;;37.80;17.63;;;;;;;3.46;85.82;100929.88;5075004;28;41003;-81
2023/02/14 10:29:08;;;;;;;46.10;22.80;;;;;;;3.01;100.00;100846.94;5171831;27;20554;-78
2023/02/14 10:31:42;;;;;;;44.30;21.27;;;;;;;3.60;100.00;100854.72;5153401;27;38813;-81
2023/02/14 10:34:17;;;;;;;41.27;21.60;;;;;;;4.14;100.00;100852.81;5170635;27;41695;-79
2023/02/14 10:36:56;;;;;;;39.93;20.83;;;;;;;4.57;100.00;100848.22;5168528;27;42745;-80
2023/02/14 10:39:52;;;;;;;43.03;21.13;;;;;;;4.66;100.00;100809.66;5152959;27;41518;-81
2023/02/14 10:42:30;;;;;;;39.53;20.03;;;;;;;5.18;97.46;100851.25;5095432;27;40029;-79
2023/02/14 10:45:13;;;;;;;37.30;20.17;;;;;;;5.34;95.20;100842.31;5153000;27;41077;-80
2023/02/14 10:47:49;;;;;;;36.37;21.17;;;;;;;5.53;92.88;100855.31;5169888;27;41592;-79
2023/02/14 10:50:23;;;;;;;37.37;20.50;;;;;;;5.65;92.55;100852.53;5153000;27;41370;-79
2023/02/14 10:53:00;;;;;;;40.87;20.90;;;;;;;5.70;89.89;100855.97;5170230;27;41129;-79
2023/02/14 10:55:38;;;;;;;34.37;19.50;;;;;;;5.72;87.58;100852.44;5167140;27;43305;-80
2023/02/14 10:58:12;;;;;;;32.20;18.40;;;;;;;5.77;86.48;100844.53;5169893;27;42245;-80
2023/02/14 11:00:50;;;;;;;31.27;18.63;;;;;;;5.96;86.87;100845.19;5170451;27;40863;-79
2023/02/14 11:03:19;;;;;;;36.07;19.00;;;;;;;6.07;85.56;100844.19;5170027;27;40907;-79
2023/02/14 11:05:48;;;;;;;26.80;17.70;;;;;;;6.08;84.68;100835.41;5171091;27;42154;-80
2023/02/14 11:08:24;;;;;;;28.93;17.63;;;;;;;6.07;83.29;100833.66;5152150;27;41681;-80
2023/02/14 11:10:52;;;;;;;29.87;17.93;;;;;;;6.21;83.02;100856.28;5169841;27;41043;-79
2023/02/14 11:13:29;;;;;;;30.43;18.80;;;;;;;6.20;82.45;100850.16;5169878;27;40772;-78
2023/02/14 11:16:01;;;;;;;30.93;17.53;;;;;;;6.32;82.51;100843.84;5153024;27;40931;-80
2023/02/14 11:18:32;;;;;;;27.67;16.60;;;;;;;6.32;81.19;100836.84;5169742;27;42981;-80
2023/02/14 11:21:02;;;;;;;28.17;16.87;;;;;;;6.42;80.72;100833.22;5167946;27;43118;-80
2023/02/14 11:23:34;;;;;;;25.83;15.90;;;;;;;6.47;80.75;100828.72;5169824;27;38989;-80
2023/02/14 11:26:04;;;;;;;25.17;16.63;;;;;;;6.42;79.57;100813.91;5167553;27;42077;-79
2023/02/14 11:28:32;;;;;;;28.53;17.73;;;;;;;6.53;79.46;100832.19;5169159;27;42987;-80
2023/02/14 11:31:01;;;;;;;27.73;16.30;;;;;;;6.55;79.32;100815.47;5170716;27;42149;-79
2023/02/14 11:33:34;;;;;;;29.03;17.27;;;;;;;6.62;78.32;100814.47;5152521;27;39112;-80
2023/02/14 11:36:05;;;;;;;24.83;15.80;;;;;;;6.60;77.20;100820.66;5169651;27;40568;-79
2023/02/14 11:38:37;;;;;;;27.07;16.30;;;;;;;6.58;76.97;100812.78;5167470;27;43769;-79
2023/02/14 11:41:06;;;;;;;31.07;17.27;;;;;;;6.63;76.80;100812.72;5138944;27;41966;-80
2023/02/14 11:43:35;;;;;;;27.03;16.30;;;;;;;6.68;76.51;100805.59;5138593;27;39705;-79
2023/02/14 11:46:15;;;;;;;25.90;16.43;;;;;;;6.76;76.72;100804.63;5156319;27;41795;-80
2023/02/14 11:48:58;;;;;;;27.10;16.23;;;;;;;6.87;76.31;100806.19;5138541;27;41680;-79
2023/02/14 11:51:29;;;;;;;29.80;17.53;;;;;;;6.81;75.77;100802.75;5156197;27;43183;-80
2023/02/14 11:54:04;;;;;;;34.97;19.20;;;;;;;6.82;76.06;100793.97;5138786;27;39439;-80
2023/02/14 11:56:52;;;;;;;31.70;18.83;;;;;;;6.83;76.41;100779.91;5138668;27;40802;-79
2023/02/14 11:59:31;;;;;;;31.27;17.80;;;;;;;6.83;76.39;100773.75;5138669;27;43245;-79
2023/02/14 12:02:04;;;;;;;30.70;18.60;;;;;;;7.01;76.35;100791.03;5138097;27;42327;-79
2023/02/14 12:04:36;;;;;;;35.13;20.33;;;;;;;6.98;75.77;100783.19;5155383;27;39400;-79
2023/02/14 12:07:16;;;;;;;33.87;18.77;;;;;;;7.04;75.47;100793.63;5154351;27;41781;-80
2023/02/14 12:09:46;;;;;;;31.60;18.80;;;;;;;7.01;74.30;100788.41;5155370;27;42941;-80
2023/02/14 12:12:20;;;;;;;31.50;18.47;;;;;;;6.93;74.01;100782.38;5137816;27;41152;-80
2023/02/14 12:14:48;;;;;;;32.63;18.97;;;;;;;6.93;74.05;100782.38;5138170;27;40137;-79
2023/02/14 12:17:29;;;;;;;32.03;18.93;;;;;;;6.98;73.87;100778.78;5155423;27;41115;-80
2023/02/14 12:20:04;;;;;;;30.40;18.17;;;;;;;7.06;74.61;100781.28;5137750;27;42402;-79
2023/02/14 12:22:37;;;;;;;30.50;18.17;;;;;;;7.05;74.02;100763.72;5154993;27;42327;-80
2023/02/14 12:25:12;;;;;;;31.47;19.43;;;;;;;7.18;74.02;100781.06;5152154;27;40471;-80
2023/02/14 12:27:47;;;;;;;34.97;18.90;;;;;;;7.09;73.32;100760.16;5137029;27;40823;-80
2023/02/14 12:30:17;;;;;;;30.73;17.50;;;;;;;7.16;73.32;100772.34;5137888;27;42772;-79
2023/02/14 12:32:50;;;;;;;34.83;19.80;;;;;;;7.24;72.77;100778.31;5137210;27;43654;-79
2023/02/14 12:35:22;;;;;;;36.67;20.73;;;;;;;7.12;72.67;100765.38;5137935;27;40333;-79
2023/02/14 12:38:02;;;;;;;34.03;19.50;;;;;;;7.26;72.50;100773.91;5155263;27;40815;-79
2023/02/14 12:40:44;;;;;;;29.93;17.90;;;;;;;7.27;72.40;100770.38;5138102;27;42526;-80
2023/02/14 12:43:49;;;;;;;32.13;18.00;;;;;;;7.26;72.80;100766.00;5155039;27;42879;-79
2023/02/14 12:46:38;;;;;;;31.73;19.00;;;;;;;7.27;72.95;100753.69;5137647;27;40289;-79
2023/02/14 12:49:21;;;;;;;32.93;19.00;;;;;;;7.34;72.80;100755.28;5137602;27;40757;-79
2023/02/14 12:51:56;;;;;;;30.93;18.80;;;;;;;7.41;72.73;100751.66;5136026;27;44778;-79
2023/02/14 12:54:54;;;;;;;32.60;18.60;;;;;;;7.42;72.17;100748.09;5137329;27;41176;-80
2023/02/14 12:57:35;;;;;;;34.63;18.03;;;;;;;7.35;72.08;100747.38;5137289;27;39283;-79
2023/02/14 13:00:19;;;;;;;28.10;17.63;;;;;;;7.31;71.80;100740.41;5154696;27;40563;-79
2023/02/14 13:03:01;;;;;;;28.03;17.07;;;;;;;7.39;72.03;100746.41;5154061;27;41970;-79
2023/02/14 13:05:44;;;;;;;33.53;18.73;;;;;;;7.35;71.92;100735.94;5154687;27;40990;-79
2023/02/14 13:08:33;;;;;;;30.17;17.60;;;;;;;7.32;71.93;100731.59;5153682;27;40016;-79
2023/02/14 13:11:11;;;;;;;32.40;18.83;;;;;;;7.29;71.50;100721.13;5151142;27;41936;-79
2023/02/14 13:13:54;;;;;;;33.07;17.77;;;;;;;7.37;71.68;100729.75;5154532;27;42014;-79
2023/02/14 13:16:31;;;;;;;28.40;16.53;;;;;;;7.29;71.91;100726.41;5154122;27;41032;-79
2023/02/14 13:19:03;;;;;;;28.60;17.07;;;;;;;7.32;71.63;100733.38;5151383;27;40244;-79
2023/02/14 13:21:37;;;;;;;31.83;17.80;;;;;;;7.18;71.85;100708.16;5136870;27;41394;-79
2023/02/14 13:24:16;;;;;;;29.63;17.03;;;;;;;7.35;72.02;100726.28;5152322;27;43042;-79
2023/02/14 13:26:52;;;;;;;29.97;18.47;;;;;;;7.32;71.27;100731.59;5153957;27;41023;-79
2023/02/14 13:29:24;;;;;;;30.53;17.90;;;;;;;7.27;70.98;100722.94;5154038;27;41214;-79
2023/02/14 13:31:56;;;;;;;30.30;18.30;;;;;;;7.31;71.26;100726.34;5153996;27;40940;-80
2023/02/14 13:34:29;;;;;;;31.67;17.60;;;;;;;7.30;71.05;100724.63;5136635;27;43183;-80
2023/02/14 13:37:00;;;;;;;29.57;17.20;;;;;;;7.27;71.09;100728.19;5136531;27;42621;-79
2023/02/14 13:39:34;;;;;;;29.63;17.57;;;;;;;7.13;71.39;100706.50;5136815;27;41714;-79
2023/02/14 13:42:01;;;;;;;31.17;18.47;;;;;;;7.24;71.49;100717.72;5151386;27;41593;-79
2023/02/14 13:44:43;;;;;;;32.27;18.03;;;;;;;7.22;71.34;100720.38;5154002;27;42786;-80
2023/02/14 13:47:18;;;;;;;28.70;17.40;;;;;;;7.20;71.78;100714.25;5152648;27;42359;-80
2023/02/14 13:49:54;;;;;;;33.13;17.83;;;;;;;7.08;71.74;100695.19;5153873;27;38717;-79
2023/02/14 13:52:45;;;;;;;30.00;17.67;;;;;;;7.21;71.65;100723.91;5136126;27;41714;-80
2023/02/14 13:55:18;;;;;;;30.17;17.37;;;;;;;7.21;71.77;100717.75;5136137;27;41937;-79
2023/02/14 13:57:47;;;;;;;30.13;17.20;;;;;;;7.23;72.13;100718.59;5153094;27;42094;-79
2023/02/14 14:00:45;;;;;;;34.17;19.23;;;;;;;7.25;71.74;100710.69;5153504;27;40102;-80
2023/02/14 14:03:15;;;;;;;33.37;19.03;;;;;;;7.21;71.83;100708.09;5153343;27;41808;-80
2023/02/14 14:06:03;;;;;;;31.27;18.33;;;;;;;7.22;71.83;100719.50;5153451;27;41502;-80
2023/02/14 14:08:41;;;;;;;34.30;18.30;;;;;;;7.15;71.78;100712.63;5152912;27;42284;-79
2023/02/14 14:11:29;;;;;;;35.50;19.17;;;;;;;7.16;71.82;100719.63;5150237;27;39924;-80
2023/02/14 14:14:03;;;;;;;31.77;17.23;;;;;;;7.10;71.21;100722.38;5136135;27;40298;-79
2023/02/14 14:16:33;;;;;;;29.83;16.57;;;;;;;7.10;71.25;100709.19;5153192;27;43426;-80
2023/02/14 14:19:03;;;;;;;27.93;16.93;;;;;;;7.07;71.46;100704.84;5153658;27;40845;-79
2023/02/14 14:21:33;;;;;;;28.90;17.20;;;;;;;7.07;71.54;100709.25;5136016;27;38882;-80
2023/02/14 14:24:22;;;;;;;30.53;18.07;;;;;;;6.94;71.03;100686.66;5135984;27;41751;-79
2023/02/14 14:26:51;;;;;;;28.20;15.53;;;;;;;7.04;71.15;100704.06;5152907;27;43281;-79
2023/02/14 14:29:25;;;;;;;26.93;15.87;;;;;;;7.02;71.52;100700.56;5135575;27;44313;-80
2023/02/14 14:31:55;;;;;;;23.90;15.03;;;;;;;7.01;70.96;100694.44;5136373;27;40048;-84
2023/02/14 14:34:26;;;;;;;28.43;16.13;;;;;;;7.02;71.29;100695.31;5135632;27;42254;-80
2023/02/14 14:37:04;;;;;;;26.33;16.13;;;;;;;6.97;71.49;100692.75;5135785;27;41943;-79
2023/02/14 14:39:38;;;;;;;28.10;15.80;;;;;;;6.94;71.55;100677.00;5152829;27;40720;-79
2023/02/14 14:42:08;;;;;;;26.80;16.53;;;;;;;6.88;71.20;100685.03;5136036;27;38992;-80
2023/02/14 14:44:44;;;;;;;22.33;15.00;;;;;;;6.77;71.14;100669.41;5154586;27;41397;-79
2023/02/14 14:47:17;;;;;;;27.83;15.33;;;;;;;6.87;71.50;100679.78;5150708;27;42785;-79
2023/02/14 14:49:46;;;;;;;24.60;15.17;;;;;;;6.87;71.64;100687.69;5135543;27;42157;-80
2023/02/14 14:52:27;;;;;;;26.17;15.40;;;;;;;6.45;71.26;100604.16;5153006;27;39319;-79
2023/02/14 14:54:58;;;;;;;28.47;16.70;;;;;;;6.82;71.77;100685.13;5151006;27;41670;-79
2023/02/14 14:57:26;;;;;;;27.00;15.63;;;;;;;6.76;71.77;100672.94;5153073;27;42729;-79
2023/02/14 15:00:19;;;;;;;30.10;15.13;;;;;;;6.80;71.82;100663.22;5152441;27;41176;-79
2023/02/14 15:03:03;;;;;;;29.00;16.30;;;;;;;6.81;71.55;100680.75;5152694;27;40073;-78
2023/02/14 15:05:33;;;;;;;26.13;15.53;;;;;;;6.78;71.97;100665.91;5150817;27;41695;-79
2023/02/14 15:08:17;;;;;;;29.57;17.23;;;;;;;6.75;72.01;100668.56;5135034;27;43553;-79
2023/02/14 15:10:51;;;;;;;30.63;16.40;;;;;;;6.58;72.03;100652.19;5134737;27;40933;-79
2023/02/14 15:16:04;;;;;;;29.20;16.70;;;;;;;6.40;72.54;100624.44;5154500;27;42449;-79
2023/02/14 15:18:32;;;;;;;30.57;16.40;;;;;;;6.56;73.10;100648.72;5157068;27;43707;-79
2023/02/14 15:21:02;;;;;;;27.50;16.13;;;;;;;6.40;73.17;100619.19;5138684;27;43947;-79
2023/02/14 15:23:31;;;;;;;30.30;17.83;;;;;;;6.48;73.21;100640.97;5155614;27;39987;-80
2023/02/14 15:26:01;;;;;;;29.50;15.93;;;;;;;6.36;73.26;100632.41;5155741;27;41620;-80
2023/02/14 15:28:31;;;;;;;28.63;17.73;;;;;;;6.37;73.36;100642.91;5155875;27;44311;-79
2023/02/14 15:31:01;;;;;;;26.20;15.63;;;;;;;6.40;73.38;100644.63;5156002;27;42185;-80
2023/02/14 15:33:31;;;;;;;30.57;17.43;;;;;;;6.24;73.53;100622.97;5155718;27;39093;-79
2023/02/14 15:36:03;;;;;;;28.97;17.00;;;;;;;6.23;73.59;100612.47;5156074;27;42828;-79
2023/02/14 15:38:32;;;;;;;29.63;17.13;;;;;;;6.23;74.08;100620.34;5155738;27;42001;-80
2023/02/14 15:41:02;;;;;;;27.27;16.37;;;;;;;6.23;73.95;100622.97;5138218;27;41102;-80
2023/02/14 15:43:32;;;;;;;31.53;16.80;;;;;;;6.26;74.04;100628.19;5138224;27;39182;-79
2023/02/14 15:46:15;;;;;;;27.20;16.33;;;;;;;6.30;73.90;100637.78;5139589;27;41923;-80
2023/02/14 15:48:45;;;;;;;33.60;17.27;;;;;;;6.29;74.11;100641.31;5139163;27;43164;-79
2023/02/14 15:51:20;;;;;;;27.10;16.73;;;;;;;6.15;74.32;100619.63;5138532;27;42296;-80
2023/02/14 15:53:54;;;;;;;29.63;16.77;;;;;;;6.15;74.18;100630.16;5138432;27;38993;-79
2023/02/14 15:56:27;;;;;;;29.77;16.87;;;;;;;6.24;74.20;100637.88;5138227;27;42223;-80
2023/02/14 15:59:00;;;;;;;26.87;15.70;;;;;;;6.24;74.45;100644.00;5152517;27;42890;-80
2023/02/14 16:01:29;;;;;;;28.23;16.73;;;;;;;6.19;74.75;100637.06;5156051;27;41210;-80
2023/02/14 16:03:59;;;;;;;30.87;17.37;;;;;;;6.14;74.73;100637.16;5155732;27;39060;-80
2023/02/14 16:06:36;;;;;;;31.83;17.53;;;;;;;6.11;75.26;100643.34;5152341;27;41643;-80
2023/02/14 16:09:06;;;;;;;33.37;18.93;;;;;;;5.96;75.21;100619.91;5137611;27;41871;-80
2023/02/14 16:11:38;;;;;;;31.60;17.80;;;;;;;6.01;75.31;100633.84;5156610;27;41692;-80
2023/02/14 16:14:33;;;;;;;29.03;16.67;;;;;;;5.96;75.38;100624.28;5155152;27;40383;-79
2023/02/14 16:17:04;;;;;;;36.10;19.33;;;;;;;5.91;75.50;100627.00;5156221;27;41926;-80
2023/02/14 16:19:37;;;;;;;32.23;17.57;;;;;;;5.74;76.33;100607.94;5155237;27;43906;-80
2023/02/14 16:22:07;;;;;;;32.73;17.97;;;;;;;5.73;76.60;100617.59;5152729;27;42254;-79
2023/02/14 16:24:36;;;;;;;29.47;16.20;;;;;;;5.72;76.38;100620.25;5137408;27;40661;-80
2023/02/14 16:27:12;;;;;;;28.67;16.93;;;;;;;5.71;76.23;100616.75;5137633;27;41838;-79
2023/02/14 16:29:40;;;;;;;28.17;16.27;;;;;;;5.72;76.71;100620.25;5154739;27;43747;-80
2023/02/14 16:32:13;;;;;;;32.23;17.57;;;;;;;5.73;77.02;100624.59;5137333;27;41329;-79
2023/02/14 16:34:41;;;;;;;31.07;17.17;;;;;;;5.70;76.74;100622.88;5151921;27;39766;-79
2023/02/14 16:37:19;;;;;;;27.40;16.30;;;;;;;5.70;76.78;100627.28;5137511;27;42210;-79
2023/02/14 16:39:47;;;;;;;34.77;18.37;;;;;;;5.57;77.01;100610.81;5155092;27;41855;-80
